createdAt,value
2019-02-14T00:00:23.900Z,103082.62
2019-02-14T00:03:27.936Z,103093.07
2019-02-14T00:06:31.998Z,103100.41
2019-02-14T00:09:36.033Z,103102.59
2019-02-14T00:12:40.092Z,103095.73
2019-02-14T00:15:44.156Z,103103.48
2019-02-14T00:18:48.192Z,103087.09
2019-02-14T00:21:52.260Z,103085.77
2019-02-14T00:24:56.301Z,103088.91
2019-02-14T00:28:00.354Z,103091.50
2019-02-14T00:31:04.413Z,103109.59
2019-02-14T00:34:08.452Z,103103.55
2019-02-14T00:37:12.512Z,103107.03
2019-02-14T00:40:16.548Z,103105.39
2019-02-14T00:43:20.600Z,103104.53
2019-02-14T00:46:24.659Z,103103.27
2019-02-14T00:49:28.697Z,103101.56
2019-02-14T00:52:32.755Z,103092.08
2019-02-14T00:55:36.808Z,103095.97
2019-02-14T00:58:40.844Z,103096.86
2019-02-14T01:01:44.905Z,103100.78
2019-02-14T01:04:48.940Z,103107.67
2019-02-14T01:07:53.001Z,103099.92
2019-02-14T01:10:57.057Z,103100.75
2019-02-14T01:14:01.104Z,103098.63
2019-02-14T01:17:05.163Z,103091.36
2019-02-14T01:20:09.204Z,103085.80
2019-02-14T01:23:13.259Z,103092.76
2019-02-14T01:26:17.317Z,103086.69
2019-02-14T01:29:21.357Z,103079.35
2019-02-14T01:32:25.423Z,103080.68
2019-02-14T01:35:29.460Z,103074.64
2019-02-14T01:38:33.515Z,103069.02
2019-02-14T01:41:37.574Z,103062.98
2019-02-14T01:44:41.694Z,103056.09
2019-02-14T01:47:45.748Z,103052.30
2019-02-14T01:50:49.808Z,103047.45
2019-02-14T01:53:53.849Z,103048.72
2019-02-14T01:56:57.912Z,103044.97
2019-02-14T02:00:01.947Z,103039.34
2019-02-14T02:03:06.009Z,103042.81
2019-02-14T02:06:10.062Z,103041.92
2019-02-14T02:09:14.101Z,103043.70
2019-02-14T02:12:18.163Z,103043.80
2019-02-14T02:15:22.198Z,103054.17
2019-02-14T02:18:26.259Z,103050.70
2019-02-14T02:21:30.342Z,103057.59
2019-02-14T02:24:34.378Z,103034.39
2019-02-14T02:27:38.546Z,103042.95
2019-02-14T02:30:42.610Z,103046.84
2019-02-14T02:33:46.666Z,103061.09
2019-02-14T02:36:50.722Z,103071.94
2019-02-14T02:39:54.759Z,103078.97
2019-02-14T02:42:58.830Z,103087.53
2019-02-14T02:46:02.891Z,103079.34
2019-02-14T02:49:06.930Z,103064.27
2019-02-14T02:52:10.983Z,103057.78
2019-02-14T02:55:15.042Z,103077.23
2019-02-14T02:58:19.099Z,103086.77
2019-02-14T03:01:23.154Z,103102.29
2019-02-14T03:04:27.188Z,103104.09
2019-02-14T03:07:31.249Z,103110.06
2019-02-14T03:10:35.287Z,103103.62
2019-02-14T03:13:39.345Z,103100.17
2019-02-14T03:16:43.410Z,103114.08
2019-02-14T03:19:47.445Z,103110.20
2019-02-14T03:22:51.500Z,103109.38
2019-02-14T03:25:55.540Z,103103.34
2019-02-14T03:28:59.597Z,103094.27
2019-02-14T03:32:03.655Z,103095.15
2019-02-14T03:35:08.125Z,103087.37
2019-02-14T03:38:12.181Z,103089.52
2019-02-14T03:41:16.238Z,103086.45
2019-02-14T03:44:20.277Z,103094.73
2019-02-14T03:47:24.332Z,103095.59
2019-02-14T03:50:28.371Z,103108.14
2019-02-14T03:53:32.425Z,103101.28
2019-02-14T03:56:36.479Z,103095.66
2019-02-14T03:59:40.519Z,103099.23
2019-02-14T04:02:44.577Z,103101.69
2019-02-14T04:05:48.617Z,103104.85
2019-02-14T04:08:52.677Z,103111.74
2019-02-14T04:11:56.732Z,103111.74
2019-02-14T04:15:00.776Z,103106.53
2019-02-14T04:18:04.830Z,103105.27
2019-02-14T04:21:08.867Z,103102.70
2019-02-14T04:24:12.921Z,103106.59
2019-02-14T04:27:16.976Z,103110.80
2019-02-14T04:30:21.016Z,103124.10
2019-02-14T04:33:25.072Z,103116.58
2019-02-14T04:36:35.858Z,103112.16
2019-02-14T04:39:34.870Z,103122.42
2019-02-14T04:42:38.937Z,103133.55
2019-02-14T04:45:42.985Z,103141.17
2019-02-14T04:48:47.033Z,103136.73
2019-02-14T04:51:51.093Z,103125.37
2019-02-14T04:54:55.128Z,103121.42
2019-02-14T04:57:59.189Z,103129.11
2019-02-14T05:01:03.226Z,103126.85
2019-02-14T05:04:07.366Z,103132.86
2019-02-14T05:07:11.427Z,103115.90
2019-02-14T05:10:15.465Z,103106.82
2019-02-14T05:13:19.525Z,103115.02
2019-02-14T05:16:23.562Z,103113.68
2019-02-14T05:19:27.620Z,103123.13
2019-02-14T05:22:31.679Z,103126.55
2019-02-14T05:25:35.749Z,103126.98
2019-02-14T05:28:39.811Z,103126.55
2019-02-14T05:31:43.870Z,103138.63
2019-02-14T05:34:47.906Z,103142.11
2019-02-14T05:37:51.963Z,103143.41
2019-02-14T05:40:56.004Z,103133.38
2019-02-14T05:44:00.062Z,103128.70
2019-02-14T05:47:04.124Z,103120.47
2019-02-14T05:50:12.728Z,103122.66
2019-02-14T05:53:16.792Z,103121.36
2019-02-14T05:56:20.833Z,103134.33
2019-02-14T05:59:24.901Z,103133.48
2019-02-14T06:02:28.959Z,103139.52
2019-02-14T06:05:33.002Z,103141.70
2019-02-14T06:08:37.075Z,103148.19
2019-02-14T06:11:41.113Z,103144.73
2019-02-14T06:14:45.173Z,103147.77
2019-02-14T06:17:49.238Z,103148.22
2019-02-14T06:20:53.272Z,103144.39
2019-02-14T06:23:57.335Z,103147.84
2019-02-14T06:27:01.398Z,103154.36
2019-02-14T06:30:08.839Z,103162.21
2019-02-14T06:33:12.896Z,103170.38
2019-02-14T06:36:16.935Z,103177.36
2019-02-14T06:39:20.998Z,103178.25
2019-02-14T06:42:25.058Z,103183.91
2019-02-14T06:45:29.097Z,103185.21
2019-02-14T06:48:33.152Z,103181.80
2019-02-14T06:51:37.189Z,103202.13
2019-02-14T06:54:41.249Z,103217.69
2019-02-14T06:57:45.309Z,103223.29
2019-02-14T07:00:49.374Z,103211.20
2019-02-14T07:03:53.401Z,103199.19
2019-02-14T07:06:57.440Z,103197.45
2019-02-14T07:10:01.501Z,103195.74
2019-02-14T07:13:05.560Z,103197.05
2019-02-14T07:16:09.780Z,103207.45
2019-02-14T07:19:13.849Z,103219.11
2019-02-14T07:22:17.901Z,103225.63
2019-02-14T07:25:21.935Z,103231.29
2019-02-14T07:28:25.991Z,103237.36
2019-02-14T07:31:30.078Z,103237.80
2019-02-14T07:34:34.140Z,103245.64
2019-02-14T07:37:38.195Z,103232.71
2019-02-14T07:40:42.233Z,103220.19
2019-02-14T07:43:46.289Z,103221.07
2019-02-14T07:46:50.326Z,103220.19
2019-02-14T07:49:54.384Z,103218.06
2019-02-14T07:52:58.446Z,103211.17
2019-02-14T07:56:02.482Z,103200.80
2019-02-14T07:59:06.544Z,103201.27
2019-02-14T08:02:10.576Z,103199.09
2019-02-14T08:05:14.633Z,103203.45
2019-02-14T08:08:18.706Z,103206.11
2019-02-14T08:11:22.729Z,103206.52
2019-02-14T08:14:26.789Z,103207.76
2019-02-14T08:17:30.849Z,103209.15
2019-02-14T08:20:34.885Z,103213.48
2019-02-14T08:23:38.945Z,103213.09
2019-02-14T08:26:42.976Z,103210.09
2019-02-14T08:29:47.038Z,103203.55
2019-02-14T08:32:51.101Z,103204.02
2019-02-14T08:35:55.141Z,103201.02
2019-02-14T08:38:59.196Z,103207.50
2019-02-14T08:42:03.238Z,103201.48
2019-02-14T08:45:10.446Z,103203.23
2019-02-14T08:48:14.492Z,103213.56
2019-02-14T08:51:18.528Z,103220.93
2019-02-14T08:54:22.584Z,103219.64
2019-02-14T08:57:26.624Z,103214.10
2019-02-14T09:00:30.684Z,103212.39
2019-02-14T09:03:34.742Z,103205.47
2019-02-14T09:06:38.776Z,103204.17
2019-02-14T09:09:42.837Z,103203.29
2019-02-14T09:12:46.893Z,103213.27
2019-02-14T09:15:50.930Z,103210.27
2019-02-14T09:18:54.992Z,103209.42
2019-02-14T09:21:59.033Z,103201.64
2019-02-14T09:25:03.259Z,103198.64
2019-02-14T09:28:07.313Z,103199.05
2019-02-14T09:31:11.348Z,103197.81
2019-02-14T09:34:15.405Z,103195.19
2019-02-14T09:37:19.440Z,103189.56
2019-02-14T09:40:23.495Z,103193.48
2019-02-14T09:43:29.770Z,103185.73
2019-02-14T09:46:33.289Z,103179.26
2019-02-14T09:49:37.348Z,103176.29
2019-02-14T09:52:41.854Z,103166.71
2019-02-14T09:55:45.909Z,103165.86
2019-02-14T09:58:49.969Z,103166.30
2019-02-14T10:01:54.005Z,103173.19
2019-02-14T10:04:58.066Z,103174.48
2019-02-14T10:08:02.124Z,103180.55
2019-02-14T10:11:06.157Z,103181.84
2019-02-14T10:14:10.214Z,103177.96
2019-02-14T10:17:22.029Z,103176.61
2019-02-14T10:20:20.010Z,103177.14
2019-02-14T10:23:24.067Z,103174.20
2019-02-14T10:26:28.105Z,103171.60
2019-02-14T10:29:32.161Z,103163.86
2019-02-14T10:32:36.197Z,103172.02
2019-02-14T10:35:40.252Z,103168.60
2019-02-14T10:38:44.313Z,103172.48
2019-02-14T10:41:48.356Z,103171.66
2019-02-14T10:44:52.418Z,103182.86
2019-02-14T10:47:56.446Z,103175.52
2019-02-14T10:51:00.517Z,103179.85
2019-02-14T10:54:04.573Z,103183.33
2019-02-14T10:57:08.610Z,103188.06
2019-02-14T11:00:17.688Z,103190.66
2019-02-14T11:03:21.915Z,103185.03
2019-02-14T11:06:25.949Z,103188.48
2019-02-14T11:09:30.014Z,103193.66
2019-02-14T11:12:34.044Z,103198.84
2019-02-14T11:15:38.113Z,103193.66
2019-02-14T11:18:44.415Z,103194.08
2019-02-14T11:21:47.908Z,103187.59
2019-02-14T11:24:51.968Z,103191.05
2019-02-14T11:27:55.999Z,103188.42
2019-02-14T11:31:00.060Z,103182.36
2019-02-14T11:34:04.112Z,103184.06
2019-02-14T11:37:08.149Z,103182.80
2019-02-14T11:40:15.269Z,103181.06
2019-02-14T11:43:19.304Z,103177.58
2019-02-14T11:46:23.369Z,103174.08
2019-02-14T11:49:27.429Z,103172.34
2019-02-14T11:52:31.464Z,103171.86
2019-02-14T11:55:35.525Z,103164.94
2019-02-14T11:58:39.586Z,103162.79
2019-02-14T12:01:43.620Z,103168.36
2019-02-14T12:04:47.681Z,103169.24
2019-02-14T12:07:51.722Z,103167.47
2019-02-14T12:10:55.776Z,103160.99
2019-02-14T12:13:59.893Z,103154.04
2019-02-14T12:17:03.876Z,103159.22
2019-02-14T12:20:12.378Z,103155.27
2019-02-14T12:23:15.407Z,103153.13
2019-02-14T12:26:19.471Z,103143.61
2019-02-14T12:29:24.427Z,103138.83
2019-02-14T12:32:28.460Z,103135.80
2019-02-14T12:35:32.527Z,103134.91
2019-02-14T12:38:36.563Z,103125.84
2019-02-14T12:41:40.623Z,103124.58
2019-02-14T12:44:44.688Z,103127.55
2019-02-14T12:47:48.724Z,103126.66
2019-02-14T12:50:52.780Z,103118.00
2019-02-14T12:53:56.839Z,103110.63
2019-02-14T12:57:00.877Z,103111.41
2019-02-14T13:00:17.119Z,103110.19
2019-02-14T13:03:21.154Z,103101.90
2019-02-14T13:06:25.213Z,103104.49
2019-02-14T13:09:29.271Z,103107.09
2019-02-14T13:12:33.312Z,103098.86
2019-02-14T13:15:37.364Z,103105.75
2019-02-14T13:18:41.401Z,103101.55
2019-02-14T13:21:45.460Z,103099.75
2019-02-14T13:24:49.517Z,103099.27
2019-02-14T13:27:53.573Z,103091.53
2019-02-14T13:30:57.786Z,103095.04
2019-02-14T13:34:01.826Z,103088.49
2019-02-14T13:37:06.153Z,103087.61
2019-02-14T13:40:10.199Z,103088.02
2019-02-14T13:43:14.229Z,103088.39
2019-02-14T13:46:18.289Z,103094.02
2019-02-14T13:49:22.348Z,103100.53
2019-02-14T13:52:26.382Z,103097.87
2019-02-14T13:55:30.445Z,103090.95
2019-02-14T13:58:34.489Z,103087.54
2019-02-14T14:01:38.545Z,103091.84
2019-02-14T14:04:44.696Z,103089.66
2019-02-14T14:07:48.340Z,103092.25
2019-02-14T14:10:52.401Z,103085.26
2019-02-14T14:13:56.443Z,103076.25
2019-02-14T14:17:00.499Z,103081.88
2019-02-14T14:20:05.894Z,103081.44
2019-02-14T14:23:09.929Z,103082.66
2019-02-14T14:26:13.985Z,103076.18
2019-02-14T14:29:18.020Z,103086.96
2019-02-14T14:32:22.081Z,103086.55
2019-02-14T14:35:26.140Z,103096.03
2019-02-14T14:38:30.177Z,103087.84
2019-02-14T14:41:34.306Z,103091.26
2019-02-14T14:44:40.005Z,103092.14
2019-02-14T14:47:44.042Z,103097.67
2019-02-14T14:50:48.098Z,103100.67
2019-02-14T14:53:52.132Z,103097.95
2019-02-14T14:56:56.189Z,103097.84
2019-02-14T15:00:00.369Z,103091.26
2019-02-14T15:03:04.360Z,103088.11
2019-02-14T15:06:08.417Z,103094.91
2019-02-14T15:09:12.452Z,103097.42
2019-02-14T15:12:16.508Z,103093.53
2019-02-14T15:15:20.565Z,103094.76
2019-02-14T15:18:24.602Z,103093.39
2019-02-14T15:21:28.660Z,103095.91
2019-02-14T15:24:32.699Z,103099.36
2019-02-14T15:27:36.760Z,103098.92
2019-02-14T15:30:40.812Z,103093.28
2019-02-14T15:33:44.848Z,103094.55
2019-02-14T15:36:49.627Z,103097.95
2019-02-14T15:39:54.670Z,103096.59
2019-02-14T15:42:58.704Z,103093.14
2019-02-14T15:46:02.765Z,103098.33
2019-02-14T15:49:06.810Z,103095.70
2019-02-14T15:52:10.869Z,103095.73
2019-02-14T15:55:14.925Z,103099.14
2019-02-14T15:58:18.965Z,103088.36
2019-02-14T16:01:23.024Z,103091.36
2019-02-14T16:04:28.799Z,103086.14
2019-02-14T16:07:32.838Z,103090.06
2019-02-14T16:10:36.869Z,103092.22
2019-02-14T16:13:40.970Z,103098.26
2019-02-14T16:16:45.755Z,103100.81
2019-02-14T16:19:50.761Z,103100.00
2019-02-14T16:22:54.820Z,103093.03
2019-02-14T16:25:58.877Z,103084.84
2019-02-14T16:29:03.748Z,103090.06
2019-02-14T16:32:07.854Z,103094.77
2019-02-14T16:35:11.913Z,103090.06
2019-02-14T16:38:15.951Z,103091.81
2019-02-14T16:41:20.009Z,103087.95
2019-02-14T16:44:24.068Z,103097.95
2019-02-14T16:47:28.117Z,103096.12
2019-02-14T16:50:32.172Z,103094.16
2019-02-14T16:53:36.207Z,103097.47
2019-02-14T16:56:40.266Z,103097.84
2019-02-14T16:59:44.305Z,103098.69
2019-02-14T17:02:48.364Z,103096.91
2019-02-14T17:05:52.422Z,103089.12
2019-02-14T17:08:56.478Z,103094.06
2019-02-14T17:12:00.518Z,103089.41
2019-02-14T17:15:06.599Z,103096.52
2019-02-14T17:18:10.657Z,103095.48
2019-02-14T17:21:14.715Z,103096.14
2019-02-14T17:24:18.754Z,103105.00
2019-02-14T17:27:22.815Z,103104.73
2019-02-14T17:30:26.887Z,103103.69
2019-02-14T17:33:30.914Z,103110.55
2019-02-14T17:36:34.982Z,103109.13
2019-02-14T17:39:39.017Z,103109.41
2019-02-14T17:42:43.083Z,103113.63
2019-02-14T17:45:47.132Z,103109.17
2019-02-14T17:48:51.169Z,103117.33
2019-02-14T17:51:55.236Z,103116.28
2019-02-14T17:54:59.272Z,103110.80
2019-02-14T17:58:03.332Z,103113.80
2019-02-14T18:01:07.393Z,103109.45
2019-02-14T18:04:11.429Z,103111.77
2019-02-14T18:07:15.490Z,103109.61
2019-02-14T18:10:19.529Z,103113.84
2019-02-14T18:13:23.580Z,103113.76
2019-02-14T18:16:27.641Z,103118.51
2019-02-14T18:19:31.691Z,103116.72
2019-02-14T18:22:35.746Z,103116.36
2019-02-14T18:25:39.780Z,103115.47
2019-02-14T18:28:43.837Z,103116.36
2019-02-14T18:31:47.892Z,103115.95
2019-02-14T18:34:51.941Z,103113.39
2019-02-14T18:37:55.997Z,103116.84
2019-02-14T18:41:04.172Z,103113.52
2019-02-14T18:44:05.792Z,103103.24
2019-02-14T18:47:09.857Z,103111.89
2019-02-14T18:50:14.339Z,103111.16
2019-02-14T18:53:18.397Z,103121.23
2019-02-14T18:56:22.431Z,103118.27
2019-02-14T18:59:26.497Z,103120.05
2019-02-14T19:02:30.555Z,103117.53
2019-02-14T19:05:34.591Z,103121.02
2019-02-14T19:08:38.651Z,103119.35
2019-02-14T19:11:42.706Z,103118.95
2019-02-14T19:14:46.746Z,103119.47
2019-02-14T19:17:50.805Z,103115.70
2019-02-14T19:20:54.841Z,103123.45
2019-02-14T19:23:58.902Z,103120.89
2019-02-14T19:27:02.959Z,103119.34
2019-02-14T19:30:09.498Z,103118.05
2019-02-14T19:33:13.821Z,103112.45
2019-02-14T19:36:17.859Z,103105.63
2019-02-14T19:39:21.917Z,103109.52
2019-02-14T19:42:25.973Z,103110.93
2019-02-14T19:45:36.271Z,103110.11
2019-02-14T19:48:35.765Z,103106.70
2019-02-14T19:51:39.802Z,103112.75
2019-02-14T19:54:43.890Z,103110.08
2019-02-14T19:57:47.950Z,103114.30
2019-02-14T20:00:51.989Z,103109.11
2019-02-14T20:03:56.054Z,103110.00
2019-02-14T20:07:00.125Z,103105.25
2019-02-14T20:10:07.005Z,103103.17
2019-02-14T20:13:11.064Z,103107.37
2019-02-14T20:16:15.104Z,103097.98
2019-02-14T20:19:19.168Z,103099.24
2019-02-14T20:22:23.230Z,103091.83
2019-02-14T20:25:29.034Z,103099.62
2019-02-14T20:28:33.091Z,103095.34
2019-02-14T20:31:37.191Z,103097.02
2019-02-14T20:34:41.620Z,103096.69
2019-02-14T20:37:45.685Z,103087.56
2019-02-14T20:40:49.724Z,103091.83
2019-02-14T20:43:53.786Z,103093.64
2019-02-14T20:46:57.821Z,103102.66
2019-02-14T20:50:01.887Z,103106.44
2019-02-14T20:53:05.983Z,103106.18
2019-02-14T20:56:09.981Z,103108.08
2019-02-14T20:59:14.054Z,103112.49
2019-02-14T21:02:18.081Z,103118.06
2019-02-14T21:05:22.145Z,103130.16
2019-02-14T21:08:26.207Z,103131.97
2019-02-14T21:11:30.241Z,103131.23
2019-02-14T21:14:34.306Z,103134.30
2019-02-14T21:17:38.363Z,103142.20
2019-02-14T21:20:42.398Z,103136.60
2019-02-14T21:23:46.458Z,103139.27
2019-02-14T21:26:50.512Z,103134.97
2019-02-14T21:29:54.568Z,103139.68
2019-02-14T21:32:58.621Z,103132.48
2019-02-14T21:36:02.687Z,103141.16
2019-02-14T21:39:07.106Z,103142.45
2019-02-14T21:42:20.912Z,103136.93
2019-02-14T21:45:17.649Z,103136.93
2019-02-14T21:48:21.701Z,103134.03
2019-02-14T21:51:25.814Z,103131.03
2019-02-14T21:54:29.877Z,103136.26
2019-02-14T21:57:33.925Z,103135.48
2019-02-14T22:00:37.992Z,103134.66
2019-02-14T22:03:42.038Z,103132.91
2019-02-14T22:06:46.094Z,103124.34
2019-02-14T22:09:50.131Z,103118.64
2019-02-14T22:12:54.173Z,103129.53
2019-02-14T22:15:58.366Z,103133.36
2019-02-14T22:19:02.457Z,103131.69
2019-02-14T22:22:06.495Z,103134.77
2019-02-14T22:25:11.055Z,103134.36
2019-02-14T22:28:15.050Z,103140.95
2019-02-14T22:31:19.120Z,103135.83
2019-02-14T22:34:23.238Z,103141.84
2019-02-14T22:37:27.273Z,103141.94
2019-02-14T22:40:31.333Z,103135.89
2019-02-14T22:43:35.371Z,103137.64
2019-02-14T22:46:39.425Z,103132.04
2019-02-14T22:49:43.485Z,103127.67
2019-02-14T22:52:47.521Z,103135.94
2019-02-14T22:55:51.577Z,103137.70
2019-02-14T22:58:55.612Z,103137.70
2019-02-14T23:01:59.668Z,103135.97
2019-02-14T23:05:03.736Z,103137.33
2019-02-14T23:08:07.783Z,103142.11
2019-02-14T23:11:11.829Z,103145.25
2019-02-14T23:14:15.892Z,103146.99
2019-02-14T23:17:20.541Z,103140.06
2019-02-14T23:20:24.593Z,103149.17
2019-02-14T23:23:28.634Z,103145.80
2019-02-14T23:26:32.688Z,103147.53
2019-02-14T23:29:36.749Z,103144.13
2019-02-14T23:32:40.796Z,103151.02
2019-02-14T23:35:44.846Z,103146.72
2019-02-14T23:38:48.884Z,103144.59
2019-02-14T23:41:52.943Z,103140.70
2019-02-14T23:44:57.000Z,103141.59
2019-02-14T23:48:01.063Z,103140.78
2019-02-14T23:51:05.112Z,103143.37
2019-02-14T23:54:09.145Z,103145.96
2019-02-14T23:57:13.208Z,103137.42
